createdAt,value
2022-10-10T00:00:37.201Z,77.01
2022-10-10T00:05:39.977Z,77.73
2022-10-10T00:10:42.223Z,77.77
2022-10-10T00:15:48.934Z,78.11
2022-10-10T00:20:52.058Z,78.23
2022-10-10T00:25:55.931Z,78.35
2022-10-10T00:30:58.124Z,78.32
2022-10-10T00:36:04.925Z,78.16
2022-10-10T00:47:32.099Z,78.47
2022-10-10T00:52:34.433Z,78.59
2022-10-10T01:04:12.962Z,77.98
2022-10-10T01:09:15.271Z,78.10
2022-10-10T01:14:36.819Z,78.19
2022-10-10T01:19:57.260Z,77.66
2022-10-10T01:25:14.488Z,77.23
2022-10-10T01:30:19.986Z,77.13
2022-10-10T01:36:00.574Z,76.80
2022-10-10T01:41:17.471Z,76.95
2022-10-10T01:46:19.740Z,76.88
2022-10-10T01:51:23.737Z,76.87
2022-10-10T01:56:32.394Z,76.88
2022-10-10T02:01:37.434Z,77.14
2022-10-10T02:06:44.636Z,75.90
2022-10-10T02:11:47.902Z,76.39
2022-10-10T02:16:52.028Z,76.87
2022-10-10T02:21:55.973Z,77.09
2022-10-10T02:27:08.609Z,77.39
2022-10-10T02:32:24.450Z,77.93
2022-10-10T02:37:32.063Z,78.35
2022-10-10T02:48:56.536Z,78.09
2022-10-10T02:54:02.136Z,77.47
2022-10-10T02:59:09.761Z,78.68
2022-10-10T03:10:41.765Z,79.79
2022-10-10T03:15:44.943Z,79.84
2022-10-10T03:21:00.102Z,80.63
2022-10-10T03:26:02.770Z,80.63
2022-10-10T03:31:05.125Z,80.58
2022-10-10T03:36:09.420Z,80.56
2022-10-10T03:41:12.463Z,80.54
2022-10-10T03:46:18.508Z,80.61
2022-10-10T03:51:20.885Z,77.17
2022-10-10T03:56:30.113Z,78.65
2022-10-10T04:01:32.839Z,78.71
2022-10-10T04:06:37.968Z,78.79
2022-10-10T04:12:12.347Z,79.41
2022-10-10T04:17:16.576Z,80.19
2022-10-10T04:22:18.857Z,80.43
2022-10-10T04:27:30.154Z,80.41
2022-10-10T04:32:43.810Z,80.99
2022-10-10T04:37:46.964Z,81.11
2022-10-10T04:42:49.528Z,81.27
2022-10-10T04:47:54.053Z,81.42
2022-10-10T04:52:57.486Z,81.50
2022-10-10T04:57:59.966Z,81.51
2022-10-10T05:03:02.960Z,81.47
2022-10-10T05:08:05.278Z,81.18
2022-10-10T05:13:10.311Z,81.35
2022-10-10T05:18:16.670Z,81.31
2022-10-10T05:23:18.929Z,81.36
2022-10-10T05:28:21.987Z,81.26
2022-10-10T05:33:29.283Z,81.55
2022-10-10T05:38:33.716Z,81.43
2022-10-10T05:43:37.179Z,81.92
2022-10-10T05:48:42.031Z,81.49
2022-10-10T05:53:45.354Z,82.15
2022-10-10T05:58:49.627Z,81.48
2022-10-10T06:03:56.207Z,80.78
2022-10-10T06:08:59.655Z,80.85
2022-10-10T06:14:02.055Z,81.08
2022-10-10T06:19:04.413Z,81.02
2022-10-10T06:24:07.086Z,81.70
2022-10-10T06:29:09.527Z,80.22
2022-10-10T06:34:11.829Z,79.17
2022-10-10T06:39:15.440Z,78.09
2022-10-10T06:44:21.823Z,77.66
2022-10-10T06:49:24.124Z,76.16
2022-10-10T06:54:26.462Z,76.26
2022-10-10T06:59:28.678Z,75.04
2022-10-10T07:04:34.300Z,75.33
2022-10-10T07:09:39.762Z,75.56
2022-10-10T07:14:42.106Z,73.20
2022-10-10T07:19:44.564Z,74.18
2022-10-10T07:24:47.821Z,73.39
2022-10-10T07:29:50.185Z,73.91
2022-10-10T07:34:53.691Z,73.10
2022-10-10T07:39:56.102Z,72.80
2022-10-10T07:44:58.382Z,72.75
2022-10-10T07:50:00.716Z,72.63
2022-10-10T07:55:03.661Z,71.58
2022-10-10T08:00:07.110Z,70.98
2022-10-10T08:05:15.982Z,69.75
2022-10-10T08:10:20.795Z,66.38
2022-10-10T08:15:23.103Z,65.39
2022-10-10T08:20:25.413Z,65.01
2022-10-10T08:25:27.922Z,64.66
2022-10-10T08:31:02.015Z,65.41
2022-10-10T08:36:12.534Z,64.94
2022-10-10T08:41:53.463Z,66.07
2022-10-10T08:53:19.389Z,64.47
2022-10-10T08:58:31.050Z,64.25
2022-10-10T09:03:43.607Z,63.28
2022-10-10T09:08:55.584Z,63.48
2022-10-10T09:14:13.272Z,62.76
2022-10-10T09:19:24.318Z,62.66
2022-10-10T09:24:37.839Z,61.73
2022-10-10T09:29:57.061Z,62.07
2022-10-10T09:35:06.126Z,61.35
2022-10-10T09:40:24.954Z,60.72
2022-10-10T09:45:33.014Z,61.14
2022-10-10T09:50:37.353Z,61.73
2022-10-10T09:55:44.905Z,60.78
2022-10-10T10:00:47.400Z,61.07
2022-10-10T10:05:55.934Z,61.61
2022-10-10T10:11:02.750Z,60.86
2022-10-10T10:16:07.573Z,59.57
2022-10-10T10:21:09.920Z,59.42
2022-10-10T10:26:15.065Z,60.37
2022-10-10T10:31:31.805Z,59.94
2022-10-10T10:36:48.837Z,59.70
2022-10-10T10:42:03.836Z,59.13
2022-10-10T10:47:08.959Z,59.28
2022-10-10T10:52:27.977Z,60.01
2022-10-10T10:57:59.435Z,60.27
2022-10-10T11:05:17.736Z,59.44
2022-10-10T11:08:54.545Z,59.05
2022-10-10T11:13:57.445Z,58.07
2022-10-10T11:18:59.682Z,56.70
2022-10-10T11:24:24.936Z,55.61
2022-10-10T11:29:35.561Z,56.09
2022-10-10T11:34:44.090Z,57.19
2022-10-10T11:39:57.201Z,57.07
2022-10-10T11:45:02.719Z,56.83
2022-10-10T11:50:21.654Z,56.73
2022-10-10T11:55:52.120Z,55.79
2022-10-10T12:01:06.258Z,56.82
2022-10-10T12:06:19.179Z,55.50
2022-10-10T12:11:40.552Z,54.58
2022-10-10T12:16:43.967Z,55.38
2022-10-10T12:22:03.376Z,55.73
2022-10-10T12:27:06.296Z,55.00
2022-10-10T12:32:19.011Z,55.00
2022-10-10T12:37:27.842Z,55.03
2022-10-10T12:42:42.223Z,56.13
2022-10-10T12:48:04.460Z,56.42
2022-10-10T12:53:14.603Z,56.24
2022-10-10T12:58:29.103Z,55.56
2022-10-10T13:03:47.423Z,55.70
2022-10-10T13:08:50.907Z,55.33
2022-10-10T13:13:57.466Z,56.12
2022-10-10T13:19:00.274Z,55.22
2022-10-10T13:24:05.482Z,55.84
2022-10-10T13:29:19.817Z,56.83
2022-10-10T13:34:27.135Z,57.31
2022-10-10T13:39:31.101Z,58.02
2022-10-10T13:44:50.909Z,58.50
2022-10-10T13:50:05.725Z,59.36
2022-10-10T13:55:15.635Z,58.86
2022-10-10T14:00:22.315Z,58.03
2022-10-10T14:05:28.247Z,58.93
2022-10-10T14:10:36.059Z,59.80
2022-10-10T14:15:41.366Z,60.28
2022-10-10T14:20:44.875Z,59.44
2022-10-10T14:25:52.803Z,59.15
2022-10-10T14:31:51.517Z,58.93
2022-10-10T14:36:53.844Z,59.91
2022-10-10T14:41:56.098Z,59.21
2022-10-10T14:47:02.740Z,60.21
2022-10-10T14:52:05.126Z,60.08
2022-10-10T14:57:10.106Z,60.08
2022-10-10T15:02:14.065Z,60.81
2022-10-10T15:07:16.623Z,61.16
2022-10-10T15:12:18.953Z,60.99
2022-10-10T15:17:21.551Z,61.53
2022-10-10T15:22:25.211Z,62.11
2022-10-10T15:27:31.567Z,62.48
2022-10-10T15:32:37.690Z,62.34
2022-10-10T15:37:39.957Z,61.29
2022-10-10T15:42:51.266Z,60.46
2022-10-10T15:47:54.616Z,63.68
2022-10-10T15:52:57.359Z,67.17
2022-10-10T15:58:00.488Z,68.84
2022-10-10T16:03:02.740Z,70.69
2022-10-10T16:08:06.592Z,71.41
2022-10-10T16:13:11.372Z,71.59
2022-10-10T16:18:16.551Z,72.55
2022-10-10T16:23:21.638Z,74.07
2022-10-10T16:28:38.438Z,75.13
2022-10-10T16:33:41.894Z,77.06
2022-10-10T16:38:47.216Z,77.60
2022-10-10T16:43:50.214Z,78.60
2022-10-10T16:48:53.096Z,79.55
2022-10-10T16:53:58.047Z,80.07
2022-10-10T16:59:01.127Z,80.18
2022-10-10T17:04:04.515Z,80.17
2022-10-10T17:09:30.441Z,82.99
2022-10-10T17:14:34.883Z,84.62
2022-10-10T17:19:48.552Z,83.36
2022-10-10T17:24:51.685Z,83.41
2022-10-10T17:29:56.972Z,82.38
2022-10-10T17:35:05.195Z,83.62
2022-10-10T17:40:10.345Z,87.47
2022-10-10T17:45:13.538Z,87.97
2022-10-10T17:50:25.890Z,86.62
2022-10-10T17:55:28.905Z,86.01
2022-10-10T18:00:33.101Z,83.65
2022-10-10T18:05:42.685Z,83.98
2022-10-10T18:10:52.564Z,83.84
2022-10-10T18:16:07.235Z,84.24
2022-10-10T18:21:10.940Z,84.91
2022-10-10T18:26:15.409Z,84.94
2022-10-10T18:31:21.865Z,85.99
2022-10-10T18:36:25.013Z,86.55
2022-10-10T18:41:34.554Z,87.38
2022-10-10T18:46:41.380Z,87.90
2022-10-10T18:51:48.961Z,87.60
2022-10-10T18:56:51.286Z,88.89
2022-10-10T19:02:11.810Z,88.81
2022-10-10T19:07:17.730Z,89.40
2022-10-10T19:12:22.486Z,89.56
2022-10-10T19:17:24.745Z,90.09
2022-10-10T19:22:27.467Z,92.00
2022-10-10T19:27:36.005Z,93.39
2022-10-10T19:32:38.280Z,96.98
2022-10-10T19:37:40.594Z,100.00
2022-10-10T19:48:00.775Z,100.00
2022-10-10T19:53:08.258Z,100.00
2022-10-10T19:58:19.763Z,100.00
2022-10-10T20:03:31.302Z,100.00
2022-10-10T20:08:37.669Z,100.00
2022-10-10T20:13:42.155Z,100.00
2022-10-10T20:18:45.107Z,100.00
2022-10-10T20:23:52.308Z,100.00
2022-10-10T20:28:55.082Z,100.00
2022-10-10T20:33:58.869Z,100.00
2022-10-10T20:39:03.168Z,100.00
2022-10-10T20:44:06.577Z,100.00
2022-10-10T20:49:12.236Z,100.00
2022-10-10T20:54:17.933Z,100.00
2022-10-10T20:59:22.463Z,100.00
2022-10-10T21:04:24.734Z,100.00
2022-10-10T21:09:27.926Z,99.37
2022-10-10T21:14:33.173Z,99.02
2022-10-10T21:19:35.986Z,99.09
2022-10-10T21:24:38.381Z,98.39
2022-10-10T21:29:40.703Z,99.26
2022-10-10T21:34:43.169Z,99.39
2022-10-10T21:39:45.978Z,100.00
2022-10-10T21:44:48.281Z,100.00
2022-10-10T21:49:50.596Z,100.00
2022-10-10T21:54:55.618Z,99.72
2022-10-10T22:00:07.241Z,100.00
2022-10-10T22:05:15.120Z,99.70
2022-10-10T22:10:19.778Z,98.75
2022-10-10T22:15:24.245Z,99.14
2022-10-10T22:20:26.757Z,99.18
2022-10-10T22:25:28.985Z,98.77
2022-10-10T22:30:31.260Z,98.56
2022-10-10T22:35:34.265Z,97.77
2022-10-10T22:40:38.615Z,96.99
2022-10-10T22:45:41.567Z,97.40
2022-10-10T22:50:44.535Z,97.85
2022-10-10T22:55:46.819Z,97.87
2022-10-10T23:00:52.120Z,96.98
2022-10-10T23:05:55.566Z,96.39
2022-10-10T23:11:01.823Z,96.72
2022-10-10T23:16:04.529Z,96.02
2022-10-10T23:21:07.565Z,95.93
2022-10-10T23:26:11.139Z,96.11
2022-10-10T23:31:14.514Z,95.97
2022-10-10T23:41:33.570Z,93.72
2022-10-10T23:46:36.891Z,92.54
2022-10-10T23:51:40.110Z,91.18
2022-10-10T23:56:42.380Z,91.64
